createdAt,value
2022-09-20T05:00:53.762Z,0.62
2022-09-20T05:06:44.151Z,0.40
2022-09-20T05:12:19.013Z,0.52
2022-09-20T05:17:37.209Z,0.68
2022-09-20T05:23:05.768Z,0.57
2022-09-20T05:28:14.905Z,0.65
2022-09-20T05:33:28.121Z,0.70
2022-09-20T05:38:40.813Z,0.62
2022-09-20T05:43:53.809Z,0.68
2022-09-20T05:49:05.063Z,0.43
2022-09-20T05:54:30.856Z,0.70
2022-09-20T05:59:45.999Z,0.45
2022-09-20T06:05:00.371Z,0.45
2022-09-20T06:10:34.229Z,0.47
2022-09-20T06:15:44.847Z,0.60
2022-09-20T06:20:59.094Z,0.70
2022-09-20T06:26:07.827Z,0.70
2022-09-20T06:31:12.206Z,0.50
2022-09-20T06:36:38.305Z,0.90
2022-09-20T06:41:43.157Z,0.77
2022-09-20T06:46:47.888Z,1.02
2022-09-20T06:51:52.886Z,1.17
2022-09-20T06:56:56.513Z,1.12
2022-09-20T07:02:00.157Z,1.00
2022-09-20T07:07:09.429Z,0.80
2022-09-20T07:12:13.418Z,1.20
2022-09-20T07:17:17.093Z,1.03
2022-09-20T07:22:22.012Z,0.75
2022-09-20T07:27:29.244Z,0.75
2022-09-20T07:32:33.312Z,1.48
2022-09-20T07:37:41.354Z,1.20
2022-09-20T07:42:46.219Z,1.00
2022-09-20T07:47:50.144Z,1.40
2022-09-20T07:52:58.797Z,1.10
2022-09-20T07:58:02.965Z,0.98
2022-09-20T08:03:06.851Z,1.27
2022-09-20T08:08:13.322Z,1.50
2022-09-20T08:18:46.353Z,1.92
2022-09-20T08:23:52.341Z,1.40
2022-09-20T08:28:57.728Z,1.40
2022-09-20T08:34:03.723Z,1.12
2022-09-20T08:44:36.470Z,0.77
2022-09-20T08:49:40.563Z,0.62
2022-09-20T08:54:45.971Z,1.15
2022-09-20T08:59:50.451Z,0.93
2022-09-20T09:04:54.462Z,1.05
2022-09-20T09:10:00.819Z,0.73
2022-09-20T09:15:23.163Z,0.55
2022-09-20T09:20:27.375Z,0.65
2022-09-20T09:25:34.512Z,0.45
2022-09-20T09:30:40.057Z,0.22
2022-09-20T09:35:45.364Z,0.40
2022-09-20T09:40:55.458Z,0.50
2022-09-20T09:46:19.293Z,0.35
2022-09-20T09:51:23.521Z,0.60
2022-09-20T09:56:47.473Z,0.28
2022-09-20T10:02:02.649Z,0.83
2022-09-20T10:07:14.181Z,0.80
2022-09-20T10:12:36.948Z,0.45
2022-09-20T10:17:52.032Z,0.40
2022-09-20T10:23:39.394Z,0.10
2022-09-20T10:28:48.502Z,0.45
2022-09-20T10:34:03.633Z,0.47
2022-09-20T10:39:14.601Z,0.10
2022-09-20T10:44:37.998Z,0.30
2022-09-20T10:49:50.686Z,0.32
2022-09-20T10:55:14.740Z,0.52
2022-09-20T11:00:24.977Z,0.30
2022-09-20T11:05:35.888Z,0.40
2022-09-20T11:10:45.579Z,0.32
2022-09-20T11:15:59.550Z,0.13
2022-09-20T11:21:09.648Z,0.20
2022-09-20T11:26:19.640Z,0.20
2022-09-20T11:31:29.206Z,0.25
2022-09-20T11:36:44.080Z,0.13
2022-09-20T11:41:48.075Z,0.10
2022-09-20T11:46:57.383Z,0.15
2022-09-20T11:52:21.270Z,0.30
2022-09-20T11:57:25.552Z,0.30
2022-09-20T12:02:36.336Z,0.30
2022-09-20T12:07:42.265Z,0.20
2022-09-20T12:12:48.215Z,0.30
2022-09-20T12:18:32.116Z,0.50
2022-09-20T12:24:20.076Z,0.17
2022-09-20T12:29:57.380Z,0.52
2022-09-20T12:35:02.647Z,0.17
2022-09-20T12:40:16.473Z,0.13
2022-09-20T12:45:20.540Z,0.15
2022-09-20T12:50:43.385Z,0.60
2022-09-20T12:55:54.992Z,0.40
2022-09-20T13:01:46.077Z,0.30
2022-09-20T13:06:52.052Z,0.37
2022-09-20T13:11:57.155Z,0.20
2022-09-20T13:17:03.941Z,0.20
2022-09-20T13:22:14.263Z,0.55
2022-09-20T13:27:22.391Z,0.30
2022-09-20T13:32:27.973Z,0.28
2022-09-20T13:37:33.261Z,0.57
2022-09-20T13:42:36.946Z,0.37
2022-09-20T13:47:44.341Z,0.20
2022-09-20T13:52:51.604Z,0.60
2022-09-20T13:57:56.826Z,0.17
2022-09-20T14:03:00.785Z,0.52
2022-09-20T14:08:07.531Z,0.35
2022-09-20T14:13:17.285Z,0.62
2022-09-20T14:18:23.249Z,0.30
2022-09-20T14:23:30.551Z,0.43
2022-09-20T14:28:34.227Z,0.20
2022-09-20T14:33:42.693Z,0.32
2022-09-20T14:38:49.908Z,0.57
2022-09-20T14:43:57.948Z,1.00
2022-09-20T14:49:21.640Z,0.68
2022-09-20T14:54:29.943Z,0.40
2022-09-20T14:59:39.981Z,0.37
2022-09-20T15:04:54.281Z,0.40
2022-09-20T15:15:02.953Z,0.50
2022-09-20T15:20:07.566Z,0.30
2022-09-20T15:25:16.919Z,0.50
2022-09-20T15:30:21.082Z,0.25
2022-09-20T15:35:24.717Z,0.30
2022-09-20T15:40:29.749Z,0.20
2022-09-20T15:45:33.444Z,0.20
2022-09-20T15:50:37.098Z,0.40
2022-09-20T15:55:42.018Z,0.10
2022-09-20T16:00:45.930Z,0.47
2022-09-20T16:06:04.150Z,0.10
2022-09-20T16:11:11.787Z,0.37
2022-09-20T16:16:16.037Z,0.40
2022-09-20T16:21:20.864Z,0.35
2022-09-20T16:26:29.148Z,0.60
2022-09-20T16:31:40.061Z,0.52
2022-09-20T16:36:45.429Z,0.32
2022-09-20T16:41:50.678Z,0.57
2022-09-20T16:46:54.406Z,0.22
2022-09-20T16:51:57.976Z,0.60
2022-09-20T16:57:03.120Z,0.70
2022-09-20T17:02:06.678Z,0.88
2022-09-20T17:07:10.317Z,0.30
2022-09-20T17:12:18.933Z,0.20
2022-09-20T17:17:22.974Z,0.50
2022-09-20T17:22:26.526Z,0.37
2022-09-20T17:27:32.793Z,0.40
2022-09-20T17:32:37.043Z,0.88
2022-09-20T17:37:41.569Z,0.55
2022-09-20T17:47:50.367Z,0.73
2022-09-20T17:52:53.927Z,0.70
2022-09-20T17:57:58.811Z,0.40
2022-09-20T18:03:04.993Z,0.40
2022-09-20T18:08:08.713Z,0.62
2022-09-20T18:13:15.333Z,0.27
2022-09-20T18:18:20.113Z,0.55
2022-09-20T18:23:23.815Z,0.30
2022-09-20T18:28:29.001Z,0.47
2022-09-20T18:33:33.526Z,1.30
2022-09-20T18:38:37.207Z,1.27
2022-09-20T18:43:45.837Z,1.00
2022-09-20T18:48:49.437Z,0.70
2022-09-20T18:53:53.739Z,0.87
2022-09-20T18:59:00.363Z,1.30
2022-09-20T19:04:17.192Z,0.85
2022-09-20T19:09:27.003Z,1.08
2022-09-20T19:14:36.965Z,0.70
2022-09-20T19:19:50.252Z,0.70
2022-09-20T19:25:20.822Z,0.40
2022-09-20T19:30:26.882Z,0.80
2022-09-20T19:35:38.222Z,0.82
2022-09-20T19:40:48.810Z,1.33
2022-09-20T19:46:02.671Z,0.60
2022-09-20T19:51:11.089Z,1.00
2022-09-20T19:56:24.792Z,0.73
2022-09-20T20:01:31.517Z,0.35
2022-09-20T20:06:42.776Z,0.40
2022-09-20T20:11:54.215Z,0.88
2022-09-20T20:17:06.381Z,0.50
2022-09-20T20:22:17.939Z,0.70
2022-09-20T20:27:22.749Z,1.30
2022-09-20T20:32:28.005Z,1.00
2022-09-20T20:37:32.351Z,0.70
2022-09-20T20:42:37.094Z,0.77
2022-09-20T20:47:44.480Z,0.43
2022-09-20T20:52:53.475Z,0.77
2022-09-20T20:57:59.591Z,0.52
2022-09-20T21:03:05.714Z,0.68
2022-09-20T21:08:09.879Z,0.32
2022-09-20T21:13:13.381Z,0.85
2022-09-20T21:18:18.410Z,0.75
2022-09-20T21:23:21.960Z,0.90
2022-09-20T21:28:25.483Z,0.47
2022-09-20T21:33:34.252Z,1.08
2022-09-20T21:38:38.234Z,0.60
2022-09-20T21:43:43.200Z,0.73
2022-09-20T21:48:49.360Z,0.22
2022-09-20T21:53:56.384Z,0.80
2022-09-20T21:59:02.225Z,0.85
2022-09-20T22:04:09.566Z,0.82
2022-09-20T22:09:14.671Z,0.50
2022-09-20T22:14:20.086Z,0.30
2022-09-20T22:19:24.988Z,1.02
2022-09-20T22:24:29.955Z,0.70
2022-09-20T22:29:33.567Z,1.33
